sensor_id;sensor_type;location;lat;lon;timestamp;P1;durP1;ratioP1;P2;durP2;ratioP2
39222;SDS011;24936;46.328;11.026;2023-11-19T00:01:01;4.38;;;1.48;;
39222;SDS011;24936;46.328;11.026;2023-11-19T00:03:26;7.35;;;2.03;;
39222;SDS011;24936;46.328;11.026;2023-11-19T00:05:52;4.72;;;2.38;;
39222;SDS011;24936;46.328;11.026;2023-11-19T00:08:17;3.20;;;2.13;;
39222;SDS011;24936;46.328;11.026;2023-11-19T00:10:42;3.28;;;1.92;;
39222;SDS011;24936;46.328;11.026;2023-11-19T00:13:08;2.33;;;1.40;;
39222;SDS011;24936;46.328;11.026;2023-11-19T00:15:35;2.88;;;1.45;;
39222;SDS011;24936;46.328;11.026;2023-11-19T00:18:00;3.55;;;1.70;;
39222;SDS011;24936;46.328;11.026;2023-11-19T00:20:29;1.70;;;1.15;;
39222;SDS011;24936;46.328;11.026;2023-11-19T00:22:55;1.00;;;0.90;;
39222;SDS011;24936;46.328;11.026;2023-11-19T00:25:20;1.05;;;0.95;;
39222;SDS011;24936;46.328;11.026;2023-11-19T00:27:50;0.50;;;0.50;;
39222;SDS011;24936;46.328;11.026;2023-11-19T00:30:16;0.70;;;0.70;;
39222;SDS011;24936;46.328;11.026;2023-11-19T00:32:42;1.40;;;1.15;;
39222;SDS011;24936;46.328;11.026;2023-11-19T00:35:08;1.67;;;1.17;;
39222;SDS011;24936;46.328;11.026;2023-11-19T00:37:39;1.00;;;0.95;;
39222;SDS011;24936;46.328;11.026;2023-11-19T00:40:05;1.08;;;0.95;;
39222;SDS011;24936;46.328;11.026;2023-11-19T00:42:31;1.42;;;1.33;;
39222;SDS011;24936;46.328;11.026;2023-11-19T00:44:56;1.45;;;1.35;;
39222;SDS011;24936;46.328;11.026;2023-11-19T00:47:23;1.55;;;1.45;;
39222;SDS011;24936;46.328;11.026;2023-11-19T00:49:48;1.80;;;1.65;;
39222;SDS011;24936;46.328;11.026;2023-11-19T00:52:14;1.27;;;1.17;;
39222;SDS011;24936;46.328;11.026;2023-11-19T00:54:40;0.77;;;0.77;;
39222;SDS011;24936;46.328;11.026;2023-11-19T00:57:05;1.77;;;1.52;;
39222;SDS011;24936;46.328;11.026;2023-11-19T00:59:31;1.35;;;1.25;;
39222;SDS011;24936;46.328;11.026;2023-11-19T01:01:57;1.45;;;1.02;;
39222;SDS011;24936;46.328;11.026;2023-11-19T01:04:28;1.35;;;1.25;;
39222;SDS011;24936;46.328;11.026;2023-11-19T01:06:53;3.30;;;1.60;;
39222;SDS011;24936;46.328;11.026;2023-11-19T01:09:19;1.50;;;1.30;;
39222;SDS011;24936;46.328;11.026;2023-11-19T01:11:44;1.10;;;1.00;;
39222;SDS011;24936;46.328;11.026;2023-11-19T01:14:10;1.00;;;0.95;;
39222;SDS011;24936;46.328;11.026;2023-11-19T01:16:37;1.40;;;1.25;;
39222;SDS011;24936;46.328;11.026;2023-11-19T01:19:02;6.60;;;1.35;;
39222;SDS011;24936;46.328;11.026;2023-11-19T01:21:30;2.00;;;0.90;;
39222;SDS011;24936;46.328;11.026;2023-11-19T01:23:56;1.65;;;1.55;;
39222;SDS011;24936;46.328;11.026;2023-11-19T01:26:23;1.15;;;1.05;;
39222;SDS011;24936;46.328;11.026;2023-11-19T01:28:48;1.42;;;1.33;;
39222;SDS011;24936;46.328;11.026;2023-11-19T01:31:16;1.88;;;1.50;;
39222;SDS011;24936;46.328;11.026;2023-11-19T01:33:42;0.85;;;0.85;;
39222;SDS011;24936;46.328;11.026;2023-11-19T01:36:08;1.02;;;1.02;;
39222;SDS011;24936;46.328;11.026;2023-11-19T01:38:34;1.30;;;1.20;;
39222;SDS011;24936;46.328;11.026;2023-11-19T01:41:01;1.60;;;1.33;;
39222;SDS011;24936;46.328;11.026;2023-11-19T01:43:34;1.90;;;1.52;;
39222;SDS011;24936;46.328;11.026;2023-11-19T01:46:01;1.20;;;0.85;;
39222;SDS011;24936;46.328;11.026;2023-11-19T01:48:31;0.98;;;0.98;;
39222;SDS011;24936;46.328;11.026;2023-11-19T01:50:58;3.25;;;1.27;;
39222;SDS011;24936;46.328;11.026;2023-11-19T01:53:23;0.80;;;0.70;;
39222;SDS011;24936;46.328;11.026;2023-11-19T01:55:50;1.63;;;1.10;;
39222;SDS011;24936;46.328;11.026;2023-11-19T01:58:16;1.35;;;1.25;;
39222;SDS011;24936;46.328;11.026;2023-11-19T02:00:43;2.45;;;1.33;;
39222;SDS011;24936;46.328;11.026;2023-11-19T02:03:10;1.35;;;1.25;;
39222;SDS011;24936;46.328;11.026;2023-11-19T02:05:36;3.85;;;1.58;;
39222;SDS011;24936;46.328;11.026;2023-11-19T02:08:03;1.40;;;1.30;;
39222;SDS011;24936;46.328;11.026;2023-11-19T02:10:29;2.58;;;1.33;;
39222;SDS011;24936;46.328;11.026;2023-11-19T02:12:54;2.35;;;1.70;;
39222;SDS011;24936;46.328;11.026;2023-11-19T02:15:20;2.05;;;1.00;;
39222;SDS011;24936;46.328;11.026;2023-11-19T02:17:49;1.13;;;0.95;;
39222;SDS011;24936;46.328;11.026;2023-11-19T02:20:15;0.93;;;0.90;;
39222;SDS011;24936;46.328;11.026;2023-11-19T02:22:41;1.17;;;1.10;;
39222;SDS011;24936;46.328;11.026;2023-11-19T02:25:07;1.52;;;1.33;;
39222;SDS011;24936;46.328;11.026;2023-11-19T02:27:56;2.65;;;0.88;;
39222;SDS011;24936;46.328;11.026;2023-11-19T02:30:25;1.30;;;1.20;;
39222;SDS011;24936;46.328;11.026;2023-11-19T02:32:52;0.70;;;0.70;;
39222;SDS011;24936;46.328;11.026;2023-11-19T02:35:19;0.73;;;0.73;;
39222;SDS011;24936;46.328;11.026;2023-11-19T02:37:46;0.70;;;0.70;;
39222;SDS011;24936;46.328;11.026;2023-11-19T02:40:12;0.73;;;0.63;;
39222;SDS011;24936;46.328;11.026;2023-11-19T02:42:38;2.08;;;1.00;;
39222;SDS011;24936;46.328;11.026;2023-11-19T02:45:04;1.10;;;0.70;;
39222;SDS011;24936;46.328;11.026;2023-11-19T02:47:31;0.65;;;0.65;;
39222;SDS011;24936;46.328;11.026;2023-11-19T02:49:57;0.43;;;0.43;;
39222;SDS011;24936;46.328;11.026;2023-11-19T02:52:22;3.67;;;1.20;;
39222;SDS011;24936;46.328;11.026;2023-11-19T02:54:48;0.80;;;0.80;;
39222;SDS011;24936;46.328;11.026;2023-11-19T02:57:13;0.73;;;0.73;;
39222;SDS011;24936;46.328;11.026;2023-11-19T02:59:39;0.75;;;0.70;;
39222;SDS011;24936;46.328;11.026;2023-11-19T03:02:07;1.48;;;1.00;;
39222;SDS011;24936;46.328;11.026;2023-11-19T03:04:36;1.63;;;1.17;;
39222;SDS011;24936;46.328;11.026;2023-11-19T03:07:05;0.70;;;0.70;;
39222;SDS011;24936;46.328;11.026;2023-11-19T03:09:32;1.83;;;0.93;;
39222;SDS011;24936;46.328;11.026;2023-11-19T03:11:58;1.10;;;1.00;;
39222;SDS011;24936;46.328;11.026;2023-11-19T03:14:24;1.20;;;1.00;;
39222;SDS011;24936;46.328;11.026;2023-11-19T03:16:51;0.93;;;0.85;;
39222;SDS011;24936;46.328;11.026;2023-11-19T03:19:16;0.77;;;0.77;;
39222;SDS011;24936;46.328;11.026;2023-11-19T03:21:42;0.63;;;0.63;;
39222;SDS011;24936;46.328;11.026;2023-11-19T03:24:07;0.60;;;0.60;;
39222;SDS011;24936;46.328;11.026;2023-11-19T03:26:33;1.55;;;1.15;;
39222;SDS011;24936;46.328;11.026;2023-11-19T03:28:59;0.82;;;0.82;;
39222;SDS011;24936;46.328;11.026;2023-11-19T03:31:24;0.50;;;0.50;;
39222;SDS011;24936;46.328;11.026;2023-11-19T03:33:50;0.60;;;0.60;;
39222;SDS011;24936;46.328;11.026;2023-11-19T03:36:16;2.63;;;0.82;;
39222;SDS011;24936;46.328;11.026;2023-11-19T03:38:42;1.15;;;0.65;;
39222;SDS011;24936;46.328;11.026;2023-11-19T03:41:11;1.13;;;0.88;;
39222;SDS011;24936;46.328;11.026;2023-11-19T03:43:37;0.60;;;0.60;;
39222;SDS011;24936;46.328;11.026;2023-11-19T03:46:04;0.77;;;0.77;;
39222;SDS011;24936;46.328;11.026;2023-11-19T03:48:30;0.75;;;0.75;;
39222;SDS011;24936;46.328;11.026;2023-11-19T03:50:56;1.17;;;0.73;;
39222;SDS011;24936;46.328;11.026;2023-11-19T03:53:21;1.15;;;1.00;;
39222;SDS011;24936;46.328;11.026;2023-11-19T03:55:49;1.42;;;0.73;;
39222;SDS011;24936;46.328;11.026;2023-11-19T03:58:15;0.50;;;0.50;;
39222;SDS011;24936;46.328;11.026;2023-11-19T04:00:40;0.40;;;0.40;;
39222;SDS011;24936;46.328;11.026;2023-11-19T04:03:05;0.82;;;0.82;;
39222;SDS011;24936;46.328;11.026;2023-11-19T04:05:31;1.23;;;1.02;;
39222;SDS011;24936;46.328;11.026;2023-11-19T04:07:56;0.95;;;0.77;;
39222;SDS011;24936;46.328;11.026;2023-11-19T04:10:22;0.57;;;0.50;;
39222;SDS011;24936;46.328;11.026;2023-11-19T04:12:47;0.50;;;0.50;;
39222;SDS011;24936;46.328;11.026;2023-11-19T04:15:13;1.13;;;0.90;;
39222;SDS011;24936;46.328;11.026;2023-11-19T04:17:39;0.45;;;0.45;;
39222;SDS011;24936;46.328;11.026;2023-11-19T04:20:05;1.05;;;0.77;;
39222;SDS011;24936;46.328;11.026;2023-11-19T04:22:31;0.65;;;0.65;;
39222;SDS011;24936;46.328;11.026;2023-11-19T04:24:56;0.98;;;0.70;;
39222;SDS011;24936;46.328;11.026;2023-11-19T04:27:22;0.50;;;0.50;;
39222;SDS011;24936;46.328;11.026;2023-11-19T04:29:47;1.10;;;1.00;;
39222;SDS011;24936;46.328;11.026;2023-11-19T04:32:15;1.33;;;0.88;;
39222;SDS011;24936;46.328;11.026;2023-11-19T04:34:41;0.80;;;0.63;;
39222;SDS011;24936;46.328;11.026;2023-11-19T04:37:06;0.80;;;0.65;;
39222;SDS011;24936;46.328;11.026;2023-11-19T04:39:32;0.60;;;0.60;;
39222;SDS011;24936;46.328;11.026;2023-11-19T04:41:57;0.50;;;0.50;;
39222;SDS011;24936;46.328;11.026;2023-11-19T04:44:23;0.98;;;0.93;;
39222;SDS011;24936;46.328;11.026;2023-11-19T04:46:48;0.60;;;0.60;;
39222;SDS011;24936;46.328;11.026;2023-11-19T04:49:14;1.00;;;1.00;;
39222;SDS011;24936;46.328;11.026;2023-11-19T04:51:40;1.10;;;1.00;;
39222;SDS011;24936;46.328;11.026;2023-11-19T04:54:06;0.80;;;0.73;;
39222;SDS011;24936;46.328;11.026;2023-11-19T04:56:33;1.38;;;1.13;;
39222;SDS011;24936;46.328;11.026;2023-11-19T04:59:00;1.02;;;0.90;;
39222;SDS011;24936;46.328;11.026;2023-11-19T05:01:26;0.73;;;0.73;;
39222;SDS011;24936;46.328;11.026;2023-11-19T05:03:51;0.88;;;0.70;;
39222;SDS011;24936;46.328;11.026;2023-11-19T05:06:17;0.70;;;0.70;;
39222;SDS011;24936;46.328;11.026;2023-11-19T05:08:42;0.77;;;0.77;;
39222;SDS011;24936;46.328;11.026;2023-11-19T05:11:07;1.20;;;0.82;;
39222;SDS011;24936;46.328;11.026;2023-11-19T05:13:35;1.13;;;0.70;;
39222;SDS011;24936;46.328;11.026;2023-11-19T05:16:00;4.70;;;0.85;;
39222;SDS011;24936;46.328;11.026;2023-11-19T05:18:26;0.77;;;0.77;;
39222;SDS011;24936;46.328;11.026;2023-11-19T05:20:51;0.57;;;0.57;;
39222;SDS011;24936;46.328;11.026;2023-11-19T05:23:17;0.52;;;0.52;;
39222;SDS011;24936;46.328;11.026;2023-11-19T05:25:42;1.00;;;1.00;;
39222;SDS011;24936;46.328;11.026;2023-11-19T05:28:07;0.75;;;0.75;;
39222;SDS011;24936;46.328;11.026;2023-11-19T05:30:33;1.60;;;0.77;;
39222;SDS011;24936;46.328;11.026;2023-11-19T05:32:58;3.15;;;1.15;;
39222;SDS011;24936;46.328;11.026;2023-11-19T05:35:25;1.30;;;1.20;;
39222;SDS011;24936;46.328;11.026;2023-11-19T05:37:51;1.13;;;0.68;;
39222;SDS011;24936;46.328;11.026;2023-11-19T05:40:16;1.38;;;0.85;;
39222;SDS011;24936;46.328;11.026;2023-11-19T05:42:42;1.13;;;1.02;;
39222;SDS011;24936;46.328;11.026;2023-11-19T05:45:10;1.25;;;1.10;;
39222;SDS011;24936;46.328;11.026;2023-11-19T05:47:36;0.95;;;0.93;;
39222;SDS011;24936;46.328;11.026;2023-11-19T05:50:02;1.40;;;1.20;;
39222;SDS011;24936;46.328;11.026;2023-11-19T05:52:28;1.33;;;1.17;;
39222;SDS011;24936;46.328;11.026;2023-11-19T05:54:58;1.25;;;0.93;;
39222;SDS011;24936;46.328;11.026;2023-11-19T05:57:27;1.13;;;0.90;;
39222;SDS011;24936;46.328;11.026;2023-11-19T05:59:54;2.50;;;1.30;;
39222;SDS011;24936;46.328;11.026;2023-11-19T06:02:19;1.95;;;0.93;;
39222;SDS011;24936;46.328;11.026;2023-11-19T06:04:45;3.42;;;1.02;;
39222;SDS011;24936;46.328;11.026;2023-11-19T06:07:13;2.05;;;0.98;;
39222;SDS011;24936;46.328;11.026;2023-11-19T06:09:40;0.82;;;0.82;;
39222;SDS011;24936;46.328;11.026;2023-11-19T06:12:06;0.93;;;0.80;;
39222;SDS011;24936;46.328;11.026;2023-11-19T06:14:32;0.55;;;0.52;;
39222;SDS011;24936;46.328;11.026;2023-11-19T06:16:58;1.38;;;1.08;;
39222;SDS011;24936;46.328;11.026;2023-11-19T06:19:23;1.55;;;1.15;;
39222;SDS011;24936;46.328;11.026;2023-11-19T06:21:50;0.93;;;0.75;;
39222;SDS011;24936;46.328;11.026;2023-11-19T06:24:15;0.90;;;0.60;;
39222;SDS011;24936;46.328;11.026;2023-11-19T06:26:41;1.08;;;0.88;;
39222;SDS011;24936;46.328;11.026;2023-11-19T06:29:06;0.77;;;0.70;;
39222;SDS011;24936;46.328;11.026;2023-11-19T06:31:32;1.33;;;1.23;;
39222;SDS011;24936;46.328;11.026;2023-11-19T06:33:57;1.75;;;1.65;;
39222;SDS011;24936;46.328;11.026;2023-11-19T06:36:23;1.77;;;1.55;;
39222;SDS011;24936;46.328;11.026;2023-11-19T06:38:48;1.50;;;1.35;;
39222;SDS011;24936;46.328;11.026;2023-11-19T06:41:14;1.27;;;1.17;;
39222;SDS011;24936;46.328;11.026;2023-11-19T06:43:39;4.43;;;1.30;;
39222;SDS011;24936;46.328;11.026;2023-11-19T06:46:05;2.60;;;1.65;;
39222;SDS011;24936;46.328;11.026;2023-11-19T06:48:34;2.47;;;2.15;;
39222;SDS011;24936;46.328;11.026;2023-11-19T06:50:59;4.07;;;2.13;;
39222;SDS011;24936;46.328;11.026;2023-11-19T06:53:25;2.88;;;2.33;;
39222;SDS011;24936;46.328;11.026;2023-11-19T06:55:53;3.38;;;2.67;;
39222;SDS011;24936;46.328;11.026;2023-11-19T06:58:19;2.90;;;2.42;;
39222;SDS011;24936;46.328;11.026;2023-11-19T07:00:44;3.03;;;2.53;;
39222;SDS011;24936;46.328;11.026;2023-11-19T07:03:12;3.05;;;2.45;;
39222;SDS011;24936;46.328;11.026;2023-11-19T07:05:37;3.67;;;2.22;;
39222;SDS011;24936;46.328;11.026;2023-11-19T07:08:03;2.95;;;2.25;;
39222;SDS011;24936;46.328;11.026;2023-11-19T07:10:32;2.17;;;1.98;;
39222;SDS011;24936;46.328;11.026;2023-11-19T07:12:58;3.05;;;1.88;;
39222;SDS011;24936;46.328;11.026;2023-11-19T07:15:24;2.70;;;2.50;;
39222;SDS011;24936;46.328;11.026;2023-11-19T07:17:49;4.20;;;2.17;;
39222;SDS011;24936;46.328;11.026;2023-11-19T07:20:15;8.85;;;2.88;;
39222;SDS011;24936;46.328;11.026;2023-11-19T07:22:43;2.08;;;1.70;;
39222;SDS011;24936;46.328;11.026;2023-11-19T07:25:15;1.88;;;1.45;;
39222;SDS011;24936;46.328;11.026;2023-11-19T07:27:40;3.25;;;1.45;;
39222;SDS011;24936;46.328;11.026;2023-11-19T07:30:06;3.35;;;2.53;;
39222;SDS011;24936;46.328;11.026;2023-11-19T07:32:35;3.00;;;2.17;;
39222;SDS011;24936;46.328;11.026;2023-11-19T07:35:00;2.42;;;2.22;;
39222;SDS011;24936;46.328;11.026;2023-11-19T07:37:26;3.88;;;2.55;;
39222;SDS011;24936;46.328;11.026;2023-11-19T07:39:51;2.95;;;2.63;;
39222;SDS011;24936;46.328;11.026;2023-11-19T07:42:17;2.60;;;2.08;;
39222;SDS011;24936;46.328;11.026;2023-11-19T07:44:45;3.20;;;2.53;;
39222;SDS011;24936;46.328;11.026;2023-11-19T07:47:11;4.18;;;3.50;;
39222;SDS011;24936;46.328;11.026;2023-11-19T07:49:37;8.13;;;5.78;;
39222;SDS011;24936;46.328;11.026;2023-11-19T07:52:03;7.00;;;5.55;;
39222;SDS011;24936;46.328;11.026;2023-11-19T07:54:29;8.25;;;7.40;;
39222;SDS011;24936;46.328;11.026;2023-11-19T07:56:54;5.68;;;3.80;;
39222;SDS011;24936;46.328;11.026;2023-11-19T07:59:20;8.07;;;6.00;;
39222;SDS011;24936;46.328;11.026;2023-11-19T08:01:46;9.68;;;6.57;;
39222;SDS011;24936;46.328;11.026;2023-11-19T08:04:11;8.90;;;6.28;;
39222;SDS011;24936;46.328;11.026;2023-11-19T08:06:37;14.43;;;9.18;;
39222;SDS011;24936;46.328;11.026;2023-11-19T08:09:02;18.58;;;11.88;;
39222;SDS011;24936;46.328;11.026;2023-11-19T08:11:28;21.27;;;11.82;;
39222;SDS011;24936;46.328;11.026;2023-11-19T08:13:53;18.55;;;12.65;;
39222;SDS011;24936;46.328;11.026;2023-11-19T08:16:19;17.60;;;10.07;;
39222;SDS011;24936;46.328;11.026;2023-11-19T08:18:44;10.55;;;7.53;;
39222;SDS011;24936;46.328;11.026;2023-11-19T08:21:10;12.95;;;8.00;;
39222;SDS011;24936;46.328;11.026;2023-11-19T08:23:35;10.07;;;7.22;;
39222;SDS011;24936;46.328;11.026;2023-11-19T08:26:01;11.50;;;7.57;;
39222;SDS011;24936;46.328;11.026;2023-11-19T08:28:27;9.30;;;6.40;;
39222;SDS011;24936;46.328;11.026;2023-11-19T08:30:53;7.07;;;5.78;;
39222;SDS011;24936;46.328;11.026;2023-11-19T08:33:18;8.65;;;5.00;;
39222;SDS011;24936;46.328;11.026;2023-11-19T08:35:44;4.95;;;4.40;;
39222;SDS011;24936;46.328;11.026;2023-11-19T08:38:10;3.30;;;3.00;;
39222;SDS011;24936;46.328;11.026;2023-11-19T08:40:36;4.70;;;4.30;;
39222;SDS011;24936;46.328;11.026;2023-11-19T08:43:03;5.22;;;4.55;;
39222;SDS011;24936;46.328;11.026;2023-11-19T08:45:29;8.43;;;6.10;;
39222;SDS011;24936;46.328;11.026;2023-11-19T08:47:56;17.52;;;9.65;;
39222;SDS011;24936;46.328;11.026;2023-11-19T08:50:22;8.88;;;5.75;;
39222;SDS011;24936;46.328;11.026;2023-11-19T08:52:47;5.97;;;4.90;;
39222;SDS011;24936;46.328;11.026;2023-11-19T08:55:13;14.95;;;7.70;;
39222;SDS011;24936;46.328;11.026;2023-11-19T08:57:38;9.65;;;7.53;;
39222;SDS011;24936;46.328;11.026;2023-11-19T09:00:04;7.85;;;6.15;;
39222;SDS011;24936;46.328;11.026;2023-11-19T09:02:33;8.35;;;5.72;;
39222;SDS011;24936;46.328;11.026;2023-11-19T09:05:02;9.32;;;6.88;;
39222;SDS011;24936;46.328;11.026;2023-11-19T09:07:28;7.13;;;6.03;;
39222;SDS011;24936;46.328;11.026;2023-11-19T09:09:53;3.60;;;2.63;;
39222;SDS011;24936;46.328;11.026;2023-11-19T09:12:19;6.22;;;3.05;;
39222;SDS011;24936;46.328;11.026;2023-11-19T09:14:44;3.97;;;2.88;;
39222;SDS011;24936;46.328;11.026;2023-11-19T09:17:10;4.65;;;2.30;;
39222;SDS011;24936;46.328;11.026;2023-11-19T09:19:36;6.50;;;3.53;;
39222;SDS011;24936;46.328;11.026;2023-11-19T09:22:01;5.53;;;4.32;;
39222;SDS011;24936;46.328;11.026;2023-11-19T09:24:27;5.88;;;4.43;;
39222;SDS011;24936;46.328;11.026;2023-11-19T09:26:53;3.53;;;2.83;;
39222;SDS011;24936;46.328;11.026;2023-11-19T09:29:20;4.38;;;3.58;;
39222;SDS011;24936;46.328;11.026;2023-11-19T09:31:46;8.52;;;4.25;;
39222;SDS011;24936;46.328;11.026;2023-11-19T09:34:12;6.15;;;3.97;;
39222;SDS011;24936;46.328;11.026;2023-11-19T09:36:37;4.00;;;3.17;;
39222;SDS011;24936;46.328;11.026;2023-11-19T09:39:02;9.70;;;4.80;;
39222;SDS011;24936;46.328;11.026;2023-11-19T09:41:29;5.65;;;3.00;;
39222;SDS011;24936;46.328;11.026;2023-11-19T09:43:55;4.28;;;3.50;;
39222;SDS011;24936;46.328;11.026;2023-11-19T09:46:21;4.25;;;3.10;;
39222;SDS011;24936;46.328;11.026;2023-11-19T09:48:49;3.05;;;2.65;;
39222;SDS011;24936;46.328;11.026;2023-11-19T09:51:19;4.07;;;3.13;;
39222;SDS011;24936;46.328;11.026;2023-11-19T09:53:45;2.22;;;2.08;;
39222;SDS011;24936;46.328;11.026;2023-11-19T09:56:11;1.92;;;1.27;;
39222;SDS011;24936;46.328;11.026;2023-11-19T09:58:37;1.50;;;1.40;;
39222;SDS011;24936;46.328;11.026;2023-11-19T10:01:03;3.55;;;1.40;;
39222;SDS011;24936;46.328;11.026;2023-11-19T10:03:35;2.47;;;1.80;;
39222;SDS011;24936;46.328;11.026;2023-11-19T10:06:03;3.05;;;1.77;;
39222;SDS011;24936;46.328;11.026;2023-11-19T10:08:29;1.83;;;1.65;;
39222;SDS011;24936;46.328;11.026;2023-11-19T10:10:54;3.42;;;2.63;;
39222;SDS011;24936;46.328;11.026;2023-11-19T10:13:20;4.38;;;2.70;;
39222;SDS011;24936;46.328;11.026;2023-11-19T10:15:51;4.25;;;3.78;;
39222;SDS011;24936;46.328;11.026;2023-11-19T10:18:17;4.53;;;2.33;;
39222;SDS011;24936;46.328;11.026;2023-11-19T10:20:43;3.35;;;1.73;;
39222;SDS011;24936;46.328;11.026;2023-11-19T10:23:09;4.32;;;3.60;;
39222;SDS011;24936;46.328;11.026;2023-11-19T10:25:36;2.72;;;2.35;;
39222;SDS011;24936;46.328;11.026;2023-11-19T10:28:01;4.13;;;3.05;;
39222;SDS011;24936;46.328;11.026;2023-11-19T10:30:28;5.93;;;2.65;;
39222;SDS011;24936;46.328;11.026;2023-11-19T10:35:31;2.35;;;2.15;;
39222;SDS011;24936;46.328;11.026;2023-11-19T10:38:18;3.10;;;2.80;;
39222;SDS011;24936;46.328;11.026;2023-11-19T10:40:43;4.63;;;3.22;;
39222;SDS011;24936;46.328;11.026;2023-11-19T10:43:08;2.65;;;1.98;;
39222;SDS011;24936;46.328;11.026;2023-11-19T10:45:37;1.13;;;1.02;;
39222;SDS011;24936;46.328;11.026;2023-11-19T10:48:04;1.05;;;0.98;;
39222;SDS011;24936;46.328;11.026;2023-11-19T10:50:33;1.25;;;1.10;;
39222;SDS011;24936;46.328;11.026;2023-11-19T10:53:01;2.00;;;1.45;;
39222;SDS011;24936;46.328;11.026;2023-11-19T10:55:27;1.45;;;1.35;;
39222;SDS011;24936;46.328;11.026;2023-11-19T10:58:04;2.15;;;1.42;;
39222;SDS011;24936;46.328;11.026;2023-11-19T11:00:37;1.42;;;1.33;;
39222;SDS011;24936;46.328;11.026;2023-11-19T11:03:25;1.40;;;1.15;;
39222;SDS011;24936;46.328;11.026;2023-11-19T11:05:52;1.17;;;1.05;;
39222;SDS011;24936;46.328;11.026;2023-11-19T11:08:19;1.63;;;1.40;;
39222;SDS011;24936;46.328;11.026;2023-11-19T11:10:48;2.42;;;1.98;;
39222;SDS011;24936;46.328;11.026;2023-11-19T11:13:20;1.70;;;1.60;;
39222;SDS011;24936;46.328;11.026;2023-11-19T11:15:49;2.75;;;2.40;;
39222;SDS011;24936;46.328;11.026;2023-11-19T11:18:15;1.88;;;1.48;;
39222;SDS011;24936;46.328;11.026;2023-11-19T11:20:42;2.20;;;1.40;;
39222;SDS011;24936;46.328;11.026;2023-11-19T11:29:01;4.05;;;1.88;;
39222;SDS011;24936;46.328;11.026;2023-11-19T11:36:49;2.13;;;1.92;;
39222;SDS011;24936;46.328;11.026;2023-11-19T11:39:23;2.40;;;2.10;;
39222;SDS011;24936;46.328;11.026;2023-11-19T11:50:07;2.05;;;1.75;;
39222;SDS011;24936;46.328;11.026;2023-11-19T11:53:20;1.67;;;1.08;;
39222;SDS011;24936;46.328;11.026;2023-11-19T11:55:26;1.40;;;1.30;;
39222;SDS011;24936;46.328;11.026;2023-11-19T11:57:57;2.63;;;1.48;;
39222;SDS011;24936;46.328;11.026;2023-11-19T12:00:27;1.40;;;1.30;;
39222;SDS011;24936;46.328;11.026;2023-11-19T12:02:59;1.90;;;1.70;;
39222;SDS011;24936;46.328;11.026;2023-11-19T12:05:25;1.70;;;1.60;;
39222;SDS011;24936;46.328;11.026;2023-11-19T12:07:55;3.10;;;2.38;;
39222;SDS011;24936;46.328;11.026;2023-11-19T12:10:20;2.20;;;2.00;;
39222;SDS011;24936;46.328;11.026;2023-11-19T12:12:47;2.08;;;1.65;;
39222;SDS011;24936;46.328;11.026;2023-11-19T12:15:12;1.35;;;1.25;;
39222;SDS011;24936;46.328;11.026;2023-11-19T12:20:15;1.50;;;1.08;;
39222;SDS011;24936;46.328;11.026;2023-11-19T12:22:42;6.25;;;1.45;;
39222;SDS011;24936;46.328;11.026;2023-11-19T12:25:09;2.55;;;2.00;;
39222;SDS011;24936;46.328;11.026;2023-11-19T12:27:37;1.90;;;1.20;;
39222;SDS011;24936;46.328;11.026;2023-11-19T12:30:18;3.47;;;2.53;;
39222;SDS011;24936;46.328;11.026;2023-11-19T12:32:50;6.45;;;3.70;;
39222;SDS011;24936;46.328;11.026;2023-11-19T12:35:18;3.95;;;2.28;;
39222;SDS011;24936;46.328;11.026;2023-11-19T12:40:19;3.13;;;2.38;;
39222;SDS011;24936;46.328;11.026;2023-11-19T12:42:49;3.50;;;2.45;;
39222;SDS011;24936;46.328;11.026;2023-11-19T12:45:16;3.85;;;1.65;;
39222;SDS011;24936;46.328;11.026;2023-11-19T12:47:44;2.47;;;1.80;;
39222;SDS011;24936;46.328;11.026;2023-11-19T12:50:12;3.40;;;2.22;;
39222;SDS011;24936;46.328;11.026;2023-11-19T12:52:37;3.20;;;1.58;;
39222;SDS011;24936;46.328;11.026;2023-11-19T12:57:51;2.78;;;1.67;;
39222;SDS011;24936;46.328;11.026;2023-11-19T13:00:20;3.17;;;1.80;;
39222;SDS011;24936;46.328;11.026;2023-11-19T13:07:49;4.60;;;2.95;;
39222;SDS011;24936;46.328;11.026;2023-11-19T13:10:15;1.90;;;1.70;;
39222;SDS011;24936;46.328;11.026;2023-11-19T13:12:40;1.92;;;1.73;;
39222;SDS011;24936;46.328;11.026;2023-11-19T13:15:06;3.38;;;1.73;;
39222;SDS011;24936;46.328;11.026;2023-11-19T13:17:47;3.92;;;2.20;;
39222;SDS011;24936;46.328;11.026;2023-11-19T13:20:12;2.60;;;2.10;;
39222;SDS011;24936;46.328;11.026;2023-11-19T13:22:39;1.90;;;1.70;;
39222;SDS011;24936;46.328;11.026;2023-11-19T13:25:19;3.90;;;3.03;;
39222;SDS011;24936;46.328;11.026;2023-11-19T13:27:45;2.00;;;1.73;;
39222;SDS011;24936;46.328;11.026;2023-11-19T13:30:11;4.13;;;2.00;;
39222;SDS011;24936;46.328;11.026;2023-11-19T13:32:37;2.47;;;1.92;;
39222;SDS011;24936;46.328;11.026;2023-11-19T13:35:04;2.22;;;2.03;;
39222;SDS011;24936;46.328;11.026;2023-11-19T13:37:30;3.20;;;2.60;;
39222;SDS011;24936;46.328;11.026;2023-11-19T13:39:55;4.43;;;2.70;;
39222;SDS011;24936;46.328;11.026;2023-11-19T13:42:21;3.03;;;2.55;;
39222;SDS011;24936;46.328;11.026;2023-11-19T13:44:46;4.72;;;3.75;;
39222;SDS011;24936;46.328;11.026;2023-11-19T13:47:11;5.13;;;4.00;;
39222;SDS011;24936;46.328;11.026;2023-11-19T13:49:38;3.35;;;2.70;;
39222;SDS011;24936;46.328;11.026;2023-11-19T13:52:04;2.30;;;2.10;;
39222;SDS011;24936;46.328;11.026;2023-11-19T13:54:30;2.15;;;1.75;;
39222;SDS011;24936;46.328;11.026;2023-11-19T13:56:56;2.33;;;1.42;;
39222;SDS011;24936;46.328;11.026;2023-11-19T13:59:23;4.10;;;1.70;;
39222;SDS011;24936;46.328;11.026;2023-11-19T14:01:48;2.33;;;1.90;;
39222;SDS011;24936;46.328;11.026;2023-11-19T14:04:14;1.70;;;1.60;;
39222;SDS011;24936;46.328;11.026;2023-11-19T14:06:40;2.90;;;1.90;;
39222;SDS011;24936;46.328;11.026;2023-11-19T14:09:08;2.85;;;1.95;;
39222;SDS011;24936;46.328;11.026;2023-11-19T14:11:34;1.83;;;1.73;;
39222;SDS011;24936;46.328;11.026;2023-11-19T14:14:00;1.92;;;1.30;;
39222;SDS011;24936;46.328;11.026;2023-11-19T14:16:28;1.45;;;1.10;;
39222;SDS011;24936;46.328;11.026;2023-11-19T14:18:54;2.15;;;1.48;;
39222;SDS011;24936;46.328;11.026;2023-11-19T14:21:20;2.83;;;1.23;;
39222;SDS011;24936;46.328;11.026;2023-11-19T14:23:46;1.55;;;1.40;;
39222;SDS011;24936;46.328;11.026;2023-11-19T14:29:33;4.22;;;1.40;;
39222;SDS011;24936;46.328;11.026;2023-11-19T14:32:00;2.72;;;1.08;;
39222;SDS011;24936;46.328;11.026;2023-11-19T14:34:26;2.08;;;1.52;;
39222;SDS011;24936;46.328;11.026;2023-11-19T14:36:51;3.38;;;1.33;;
39222;SDS011;24936;46.328;11.026;2023-11-19T14:39:18;1.77;;;1.58;;
39222;SDS011;24936;46.328;11.026;2023-11-19T14:41:44;1.55;;;0.93;;
39222;SDS011;24936;46.328;11.026;2023-11-19T14:44:10;1.17;;;1.08;;
39222;SDS011;24936;46.328;11.026;2023-11-19T14:46:36;1.13;;;1.00;;
39222;SDS011;24936;46.328;11.026;2023-11-19T14:49:01;1.08;;;0.75;;
39222;SDS011;24936;46.328;11.026;2023-11-19T14:51:28;1.27;;;1.02;;
39222;SDS011;24936;46.328;11.026;2023-11-19T14:53:54;1.35;;;0.80;;
39222;SDS011;24936;46.328;11.026;2023-11-19T14:56:20;0.95;;;0.60;;
39222;SDS011;24936;46.328;11.026;2023-11-19T14:58:45;1.10;;;0.98;;
39222;SDS011;24936;46.328;11.026;2023-11-19T15:01:11;0.85;;;0.80;;
39222;SDS011;24936;46.328;11.026;2023-11-19T15:03:37;2.20;;;1.38;;
39222;SDS011;24936;46.328;11.026;2023-11-19T15:06:03;1.00;;;1.00;;
39222;SDS011;24936;46.328;11.026;2023-11-19T15:08:28;2.20;;;1.70;;